createdAt,value
2023-03-19T00:00:34.976Z,1.28
2023-03-19T00:01:35.004Z,1.28
2023-03-19T00:02:35.069Z,1.27
2023-03-19T00:03:35.301Z,1.29
2023-03-19T00:04:35.145Z,1.29
2023-03-19T00:05:34.473Z,1.27
2023-03-19T00:06:35.203Z,1.28
2023-03-19T00:07:35.240Z,1.28
2023-03-19T00:08:34.292Z,1.27
2023-03-19T00:09:35.298Z,1.28
2023-03-19T00:10:35.319Z,1.25
2023-03-19T00:11:35.419Z,1.26
2023-03-19T00:12:34.410Z,1.26
2023-03-19T00:13:35.482Z,1.27
2023-03-19T00:14:34.498Z,1.28
2023-03-19T00:15:35.975Z,1.29
2023-03-19T00:16:34.703Z,1.25
2023-03-19T00:17:35.635Z,1.28
2023-03-19T00:18:34.717Z,1.27
2023-03-19T00:19:35.729Z,1.26
2023-03-19T00:20:35.765Z,1.29
2023-03-19T00:21:35.827Z,1.28
2023-03-19T00:22:35.880Z,1.28
2023-03-19T00:23:35.908Z,1.28
2023-03-19T00:24:35.969Z,1.28
2023-03-19T00:25:36.054Z,1.27
2023-03-19T00:26:36.012Z,1.24
2023-03-19T00:27:35.070Z,1.28
2023-03-19T00:28:35.105Z,1.25
2023-03-19T00:29:36.141Z,1.25
2023-03-19T00:30:36.267Z,1.26
2023-03-19T00:31:36.232Z,1.27
2023-03-19T00:32:35.327Z,1.27
2023-03-19T00:33:36.324Z,1.26
2023-03-19T00:34:36.378Z,1.27
2023-03-19T00:35:36.750Z,1.25
2023-03-19T00:36:36.458Z,1.28
2023-03-19T00:37:36.500Z,1.26
2023-03-19T00:38:36.560Z,1.27
2023-03-19T00:39:35.614Z,1.27
2023-03-19T00:40:35.651Z,1.26
2023-03-19T00:41:36.668Z,1.26
2023-03-19T00:42:36.739Z,1.24
2023-03-19T00:43:36.764Z,1.30
2023-03-19T00:44:36.868Z,1.28
2023-03-19T00:45:36.868Z,1.26
2023-03-19T00:46:36.919Z,1.27
2023-03-19T00:47:36.976Z,1.29
2023-03-19T00:48:37.018Z,1.27
2023-03-19T00:49:37.082Z,1.28
2023-03-19T00:50:37.106Z,1.26
2023-03-19T00:51:37.142Z,1.26
2023-03-19T00:52:36.206Z,1.25
2023-03-19T00:53:37.233Z,1.27
2023-03-19T00:54:36.315Z,1.29
2023-03-19T00:55:37.323Z,1.27
2023-03-19T00:56:37.396Z,1.27
2023-03-19T00:57:37.418Z,1.26
2023-03-19T00:58:37.470Z,1.26
2023-03-19T00:59:37.543Z,1.25
2023-03-19T01:00:36.563Z,1.24
2023-03-19T01:01:38.625Z,1.29
2023-03-19T01:02:36.654Z,1.27
2023-03-19T01:03:37.694Z,1.25
2023-03-19T01:04:36.820Z,1.24
2023-03-19T01:06:37.867Z,1.25
2023-03-19T01:07:37.931Z,1.27
2023-03-19T01:08:37.935Z,1.24
2023-03-19T01:09:37.990Z,1.25
2023-03-19T01:10:38.029Z,1.23
2023-03-19T01:11:38.083Z,1.25
2023-03-19T01:12:38.196Z,1.26
2023-03-19T01:13:37.187Z,1.26
2023-03-19T01:14:38.217Z,1.24
2023-03-19T01:15:38.265Z,1.24
2023-03-19T01:16:37.308Z,1.25
2023-03-19T01:17:37.381Z,1.26
2023-03-19T01:18:38.509Z,1.27
2023-03-19T01:19:37.481Z,1.23
2023-03-19T01:20:38.526Z,1.26
2023-03-19T01:21:37.562Z,1.28
2023-03-19T01:22:38.630Z,1.25
2023-03-19T01:23:37.677Z,1.25
2023-03-19T01:24:38.711Z,1.25
2023-03-19T01:25:38.765Z,1.26
2023-03-19T01:26:38.839Z,1.26
2023-03-19T01:27:38.889Z,1.25
2023-03-19T01:28:38.973Z,1.27
2023-03-19T01:29:39.001Z,1.27
2023-03-19T01:30:39.039Z,1.27
2023-03-19T01:31:39.115Z,1.23
2023-03-19T01:32:39.238Z,1.24
2023-03-19T01:33:39.211Z,1.24
2023-03-19T01:34:39.229Z,1.23
2023-03-19T01:35:39.293Z,1.25
2023-03-19T01:36:39.342Z,1.23
2023-03-19T01:37:39.376Z,1.25
2023-03-19T01:38:39.404Z,1.27
2023-03-19T01:39:39.451Z,1.25
2023-03-19T01:40:39.513Z,1.25
2023-03-19T01:41:39.542Z,1.25
2023-03-19T01:42:38.593Z,1.26
2023-03-19T01:43:39.654Z,1.25
2023-03-19T01:44:39.728Z,1.24
2023-03-19T01:45:39.748Z,1.27
2023-03-19T01:46:39.884Z,1.27
2023-03-19T01:47:39.837Z,1.22
2023-03-19T01:48:38.917Z,1.23
2023-03-19T01:49:39.939Z,1.23
2023-03-19T01:50:39.982Z,1.22
2023-03-19T01:51:40.035Z,1.23
2023-03-19T01:52:40.079Z,1.23
2023-03-19T01:53:39.117Z,1.24
2023-03-19T01:54:40.166Z,1.22
2023-03-19T01:55:39.198Z,1.23
2023-03-19T01:56:40.233Z,1.22
2023-03-19T01:57:40.290Z,1.23
2023-03-19T01:58:40.346Z,1.21
2023-03-19T01:59:39.384Z,1.24
2023-03-19T02:00:40.448Z,1.23
2023-03-19T02:01:40.527Z,1.20
2023-03-19T02:02:40.529Z,1.22
2023-03-19T02:03:40.582Z,1.24
2023-03-19T02:04:40.651Z,1.23
2023-03-19T02:05:39.664Z,1.22
2023-03-19T02:06:40.704Z,1.23
2023-03-19T02:07:40.761Z,1.22
2023-03-19T02:08:40.814Z,1.22
2023-03-19T02:09:40.841Z,1.21
2023-03-19T02:10:39.896Z,1.23
2023-03-19T02:11:40.950Z,1.20
2023-03-19T02:12:41.015Z,1.22
2023-03-19T02:13:41.071Z,1.22
2023-03-19T02:14:41.136Z,1.23
2023-03-19T02:15:41.248Z,1.23
2023-03-19T02:16:40.246Z,1.23
2023-03-19T02:17:41.272Z,1.26
2023-03-19T02:18:40.309Z,1.24
2023-03-19T02:19:41.360Z,1.25
2023-03-19T02:20:40.413Z,1.23
2023-03-19T02:21:41.472Z,1.27
2023-03-19T02:22:41.525Z,1.23
2023-03-19T02:23:41.576Z,1.26
2023-03-19T02:24:41.632Z,1.23
2023-03-19T02:25:40.680Z,1.23
2023-03-19T02:26:41.742Z,1.23
2023-03-19T02:27:41.781Z,1.24
2023-03-19T02:28:42.664Z,1.23
2023-03-19T02:29:41.887Z,1.24
2023-03-19T02:30:41.924Z,1.22
2023-03-19T02:31:42.044Z,1.24
2023-03-19T02:32:42.021Z,1.27
2023-03-19T02:33:42.066Z,1.23
2023-03-19T02:34:42.128Z,1.22
2023-03-19T02:35:42.234Z,1.22
2023-03-19T02:36:41.233Z,1.24
2023-03-19T02:37:42.286Z,1.22
2023-03-19T02:38:41.335Z,1.23
2023-03-19T02:39:42.457Z,1.23
2023-03-19T02:40:42.441Z,1.25
2023-03-19T02:41:42.846Z,1.23
2023-03-19T02:42:41.555Z,1.23
2023-03-19T02:43:41.619Z,1.23
2023-03-19T02:44:41.652Z,1.21
2023-03-19T02:45:42.701Z,1.23
2023-03-19T02:46:42.783Z,1.25
2023-03-19T02:47:41.835Z,1.24
2023-03-19T02:48:42.882Z,1.24
2023-03-19T02:49:42.924Z,1.23
2023-03-19T02:50:42.964Z,1.22
2023-03-19T02:51:43.104Z,1.23
2023-03-19T02:52:43.068Z,1.24
2023-03-19T02:53:43.138Z,1.22
2023-03-19T02:54:43.206Z,1.23
2023-03-19T02:55:43.238Z,1.23
2023-03-19T02:56:43.302Z,1.23
2023-03-19T02:57:43.354Z,1.24
2023-03-19T02:58:43.405Z,1.22
2023-03-19T02:59:43.461Z,1.24
2023-03-19T03:00:43.539Z,1.24
2023-03-19T03:01:43.658Z,1.24
2023-03-19T03:02:43.642Z,1.26
2023-03-19T03:03:42.747Z,1.26
2023-03-19T03:04:42.762Z,1.25
2023-03-19T03:05:42.807Z,1.25
2023-03-19T03:06:43.874Z,1.25
2023-03-19T03:07:43.933Z,1.27
2023-03-19T03:08:43.976Z,1.26
2023-03-19T03:09:44.050Z,1.24
2023-03-19T03:10:43.111Z,1.24
2023-03-19T03:11:43.186Z,1.26
2023-03-19T03:12:44.225Z,1.27
2023-03-19T03:13:43.284Z,1.25
2023-03-19T03:14:44.342Z,1.25
2023-03-19T03:15:44.469Z,1.24
2023-03-19T03:16:44.514Z,1.26
2023-03-19T03:17:44.530Z,1.21
2023-03-19T03:18:44.569Z,1.25
2023-03-19T03:19:43.671Z,1.25
2023-03-19T03:20:44.733Z,1.27
2023-03-19T03:21:44.748Z,1.23
2023-03-19T03:22:43.803Z,1.23
2023-03-19T03:23:44.871Z,1.24
2023-03-19T03:24:44.926Z,1.24
2023-03-19T03:25:45.001Z,1.26
2023-03-19T03:26:45.081Z,1.23
2023-03-19T03:27:45.130Z,1.26
2023-03-19T03:28:45.184Z,1.26
2023-03-19T03:29:45.293Z,1.24
2023-03-19T03:30:45.312Z,1.24
2023-03-19T03:31:45.431Z,1.23
2023-03-19T03:32:45.516Z,1.25
2023-03-19T03:33:44.516Z,1.25
2023-03-19T03:34:45.577Z,1.25
2023-03-19T03:35:44.727Z,1.23
2023-03-19T03:36:44.691Z,1.24
2023-03-19T03:37:44.756Z,1.26
2023-03-19T03:38:45.810Z,1.22
2023-03-19T03:39:45.886Z,1.27
2023-03-19T03:40:45.928Z,1.25
2023-03-19T03:41:46.009Z,1.25
2023-03-19T03:42:46.051Z,1.26
2023-03-19T03:43:46.123Z,1.22
2023-03-19T03:44:45.193Z,1.24
2023-03-19T03:45:46.367Z,1.23
2023-03-19T03:46:46.308Z,1.23
2023-03-19T03:47:46.365Z,1.23
2023-03-19T03:48:46.421Z,1.24
2023-03-19T03:49:46.497Z,1.24
2023-03-19T03:50:46.571Z,1.24
2023-03-19T03:51:46.645Z,1.27
2023-03-19T03:52:46.682Z,1.27
2023-03-19T03:53:46.750Z,1.27
2023-03-19T03:54:46.820Z,1.24
2023-03-19T03:55:45.885Z,1.23
2023-03-19T03:56:45.948Z,1.21
2023-03-19T03:57:47.011Z,1.24
2023-03-19T03:58:47.051Z,1.25
2023-03-19T03:59:47.116Z,1.23
2023-03-19T04:00:47.190Z,1.19
2023-03-19T04:01:46.256Z,1.23
2023-03-19T04:02:47.409Z,1.24
2023-03-19T04:03:46.372Z,1.23
2023-03-19T04:04:47.424Z,1.21
2023-03-19T04:05:47.675Z,1.22
2023-03-19T04:06:47.546Z,1.22
2023-03-19T04:07:47.635Z,1.22
2023-03-19T04:08:47.700Z,1.24
2023-03-19T04:09:47.749Z,1.23
2023-03-19T04:10:47.844Z,1.22
2023-03-19T04:11:50.313Z,1.24
2023-03-19T04:12:47.862Z,1.24
2023-03-19T04:13:47.890Z,1.24
2023-03-19T04:14:47.879Z,1.24
2023-03-19T04:15:47.856Z,1.25
2023-03-19T04:16:47.884Z,1.24
2023-03-19T04:17:46.836Z,1.27
2023-03-19T04:18:47.872Z,1.25
2023-03-19T04:19:47.815Z,1.23
2023-03-19T04:20:47.840Z,1.25
2023-03-19T04:21:47.804Z,1.23
2023-03-19T04:22:47.789Z,1.26
2023-03-19T04:23:47.817Z,1.24
2023-03-19T04:24:47.796Z,1.23
2023-03-19T04:25:47.798Z,1.22
2023-03-19T04:26:47.787Z,1.24
2023-03-19T04:27:47.761Z,1.25
2023-03-19T04:28:47.771Z,1.24
2023-03-19T04:29:47.799Z,1.28
2023-03-19T04:30:47.948Z,1.27
2023-03-19T04:31:48.013Z,1.22
2023-03-19T04:32:48.302Z,1.25
2023-03-19T04:33:48.050Z,1.24
2023-03-19T04:34:48.126Z,1.23
2023-03-19T04:35:48.237Z,1.24
2023-03-19T04:36:47.253Z,1.23
2023-03-19T04:37:48.327Z,1.24
2023-03-19T04:38:48.400Z,1.26
2023-03-19T04:39:48.469Z,1.26
2023-03-19T04:40:48.496Z,1.26
2023-03-19T04:41:48.590Z,1.22
2023-03-19T04:42:48.620Z,1.29
2023-03-19T04:43:48.664Z,1.27
2023-03-19T04:44:48.736Z,1.26
2023-03-19T04:45:48.855Z,1.24
2023-03-19T04:46:48.859Z,1.25
2023-03-19T04:47:47.912Z,1.28
2023-03-19T04:48:48.973Z,1.23
2023-03-19T04:49:49.058Z,1.23
2023-03-19T04:50:48.111Z,1.23
2023-03-19T04:51:48.159Z,1.25
2023-03-19T04:52:49.223Z,1.28
2023-03-19T04:53:49.340Z,1.23
2023-03-19T04:54:49.383Z,1.21
2023-03-19T04:55:49.454Z,1.21
2023-03-19T04:56:49.435Z,1.23
2023-03-19T04:57:49.534Z,1.26
2023-03-19T04:58:49.571Z,1.26
2023-03-19T04:59:49.636Z,1.25
2023-03-19T05:00:48.686Z,1.23
2023-03-19T05:01:49.849Z,1.27
2023-03-19T05:02:48.791Z,1.24
2023-03-19T05:03:49.894Z,1.24
2023-03-19T05:04:49.871Z,1.26
2023-03-19T05:05:48.911Z,1.22
2023-03-19T05:06:49.967Z,1.22
2023-03-19T05:07:50.018Z,1.24
2023-03-19T05:08:50.071Z,1.21
2023-03-19T05:09:50.151Z,1.22
2023-03-19T05:10:50.175Z,1.23
2023-03-19T05:11:50.283Z,1.23
2023-03-19T05:12:49.298Z,1.19
2023-03-19T05:13:50.337Z,1.25
2023-03-19T05:14:50.397Z,1.24
2023-03-19T05:15:49.516Z,1.23
2023-03-19T05:16:50.491Z,1.24
2023-03-19T05:17:50.558Z,1.22
2023-03-19T05:18:50.641Z,1.23
2023-03-19T05:19:49.668Z,1.21
2023-03-19T05:20:49.688Z,1.25
2023-03-19T05:21:49.755Z,1.20
2023-03-19T05:22:50.784Z,1.28
2023-03-19T05:23:50.830Z,1.21
2023-03-19T05:24:50.858Z,1.25
2023-03-19T05:25:50.898Z,1.23
2023-03-19T05:26:50.964Z,1.22
2023-03-19T05:27:51.039Z,1.19
2023-03-19T05:28:51.053Z,1.23
2023-03-19T05:29:51.084Z,1.24
2023-03-19T05:30:51.162Z,1.24
2023-03-19T05:31:51.216Z,1.23
2023-03-19T05:32:51.310Z,1.21
2023-03-19T05:33:51.303Z,1.21
2023-03-19T05:34:50.351Z,1.20
2023-03-19T05:35:51.468Z,1.21
2023-03-19T05:36:51.459Z,1.19
2023-03-19T05:37:50.472Z,1.22
2023-03-19T05:38:51.538Z,1.21
2023-03-19T05:39:51.547Z,1.21
2023-03-19T05:40:51.603Z,1.19
2023-03-19T05:41:51.629Z,1.21
2023-03-19T05:42:50.675Z,1.21
2023-03-19T05:43:51.733Z,1.21
2023-03-19T05:44:51.743Z,1.22
2023-03-19T05:45:51.798Z,1.20
2023-03-19T05:46:51.923Z,1.20
2023-03-19T05:47:51.909Z,1.27
2023-03-19T05:48:50.937Z,1.22
2023-03-19T05:49:51.995Z,1.24
2023-03-19T05:50:52.041Z,1.21
2023-03-19T05:51:52.117Z,1.22
2023-03-19T05:52:51.180Z,1.22
2023-03-19T05:53:52.247Z,1.24
2023-03-19T05:54:52.284Z,1.22
2023-03-19T05:55:52.342Z,1.21
2023-03-19T05:56:52.373Z,1.25
2023-03-19T05:57:52.435Z,1.23
2023-03-19T05:58:52.541Z,1.25
2023-03-19T05:59:52.537Z,1.25
2023-03-19T06:00:52.564Z,1.23
2023-03-19T06:01:51.677Z,1.26
2023-03-19T06:02:52.749Z,1.21
2023-03-19T06:03:52.722Z,1.25
2023-03-19T06:04:52.732Z,1.25
2023-03-19T06:05:52.823Z,1.22
2023-03-19T06:06:52.851Z,1.24
2023-03-19T06:07:52.889Z,1.24
2023-03-19T06:08:51.933Z,1.22
2023-03-19T06:09:52.999Z,1.22
2023-03-19T06:10:53.080Z,1.23
2023-03-19T06:11:53.107Z,1.25
2023-03-19T06:12:53.162Z,1.28
2023-03-19T06:13:53.215Z,1.23
2023-03-19T06:14:53.282Z,1.23
2023-03-19T06:15:52.427Z,1.23
2023-03-19T06:16:52.402Z,1.25
2023-03-19T06:17:52.423Z,1.24
2023-03-19T06:18:53.476Z,1.22
2023-03-19T06:19:53.511Z,1.21
2023-03-19T06:20:53.553Z,1.26
2023-03-19T06:21:53.617Z,1.22
2023-03-19T06:22:52.646Z,1.23
2023-03-19T06:23:52.686Z,1.24
2023-03-19T06:24:53.747Z,1.23
2023-03-19T06:25:53.767Z,1.22
2023-03-19T06:26:53.824Z,1.26
2023-03-19T06:27:52.869Z,1.25
2023-03-19T06:28:53.937Z,1.24
2023-03-19T06:29:53.972Z,1.23
2023-03-19T06:30:53.026Z,1.24
2023-03-19T06:31:56.156Z,1.26
2023-03-19T06:32:54.099Z,1.26
2023-03-19T06:33:53.034Z,1.24
2023-03-19T06:34:54.025Z,1.25
2023-03-19T06:35:54.050Z,1.22
2023-03-19T06:36:54.062Z,1.25
2023-03-19T06:37:54.014Z,1.26
2023-03-19T06:38:54.007Z,1.26
2023-03-19T06:39:54.039Z,1.26
2023-03-19T06:40:53.993Z,1.27
2023-03-19T06:41:54.060Z,1.26
2023-03-19T06:42:52.983Z,1.27
2023-03-19T06:43:53.970Z,1.25
2023-03-19T06:44:53.996Z,1.26
2023-03-19T06:45:54.086Z,1.29
2023-03-19T06:46:52.973Z,1.29
2023-03-19T06:47:53.641Z,1.29
2023-03-19T06:48:52.950Z,1.26
2023-03-19T06:49:54.008Z,1.24
2023-03-19T06:50:53.940Z,1.27
2023-03-19T06:51:53.932Z,1.27
2023-03-19T06:52:53.921Z,1.23
2023-03-19T06:53:53.908Z,1.29
2023-03-19T06:54:53.893Z,1.31
2023-03-19T06:55:53.888Z,1.29
2023-03-19T06:56:53.883Z,1.29
2023-03-19T06:57:53.882Z,1.25
2023-03-19T06:58:52.872Z,1.29
2023-03-19T06:59:53.871Z,1.27
2023-03-19T07:00:52.906Z,1.25
2023-03-19T07:01:53.854Z,1.24
2023-03-19T07:02:53.859Z,1.24
2023-03-19T07:03:53.897Z,1.23
2023-03-19T07:04:53.821Z,1.29
2023-03-19T07:05:53.827Z,1.27
2023-03-19T07:06:53.861Z,1.27
2023-03-19T07:07:53.962Z,1.21
2023-03-19T07:08:52.977Z,1.22
2023-03-19T07:09:53.976Z,1.24
2023-03-19T07:10:53.991Z,1.23
2023-03-19T07:11:53.037Z,1.26
2023-03-19T07:12:54.052Z,1.24
2023-03-19T07:13:54.071Z,1.23
2023-03-19T07:14:53.105Z,1.24
2023-03-19T07:15:54.139Z,1.26
2023-03-19T07:16:54.186Z,1.28
2023-03-19T07:17:53.193Z,1.28
2023-03-19T07:18:54.238Z,1.34
2023-03-19T07:19:54.270Z,1.29
2023-03-19T07:20:54.271Z,1.28
2023-03-19T07:21:54.337Z,1.36
2023-03-19T07:22:54.384Z,1.34
2023-03-19T07:23:54.425Z,1.34
2023-03-19T07:24:54.475Z,1.30
2023-03-19T07:25:54.558Z,1.35
2023-03-19T07:26:54.604Z,1.36
2023-03-19T07:27:56.093Z,1.36
2023-03-19T07:28:54.727Z,1.34
2023-03-19T07:29:54.791Z,1.32
2023-03-19T07:30:54.830Z,1.31
2023-03-19T07:31:55.041Z,1.31
2023-03-19T07:32:54.992Z,1.33
2023-03-19T07:33:54.997Z,1.37
2023-03-19T07:34:55.040Z,1.34
2023-03-19T07:35:55.173Z,1.36
2023-03-19T07:36:55.173Z,1.42
2023-03-19T07:37:55.168Z,1.38
2023-03-19T07:38:55.197Z,1.41
2023-03-19T07:39:55.235Z,1.46
2023-03-19T07:41:02.227Z,1.48
2023-03-19T07:41:55.487Z,1.48
2023-03-19T07:42:55.283Z,1.48
2023-03-19T07:43:54.272Z,1.50
2023-03-19T07:44:54.228Z,1.51
2023-03-19T07:45:54.267Z,1.59
2023-03-19T07:46:55.238Z,1.61
2023-03-19T07:47:55.227Z,1.65
2023-03-19T07:48:55.274Z,1.66
2023-03-19T07:49:55.192Z,1.67
2023-03-19T07:50:55.197Z,1.67
2023-03-19T07:51:55.297Z,1.63
2023-03-19T07:52:55.183Z,1.66
2023-03-19T07:53:55.205Z,1.61
2023-03-19T07:54:55.182Z,1.56
2023-03-19T07:55:55.289Z,1.58
2023-03-19T07:56:54.162Z,1.60
2023-03-19T07:57:55.151Z,1.58
2023-03-19T07:58:55.148Z,1.57
2023-03-19T07:59:55.179Z,1.65
2023-03-19T08:00:55.144Z,1.59
2023-03-19T08:01:55.209Z,1.59
2023-03-19T08:02:55.151Z,1.67
2023-03-19T08:03:54.135Z,1.64
2023-03-19T08:04:55.287Z,1.55
2023-03-19T08:05:55.255Z,1.55
2023-03-19T08:06:55.356Z,1.51
2023-03-19T08:07:55.427Z,1.58
2023-03-19T08:08:54.438Z,1.61
2023-03-19T08:09:55.520Z,1.62
2023-03-19T08:10:55.576Z,1.65
2023-03-19T08:11:55.651Z,1.65
2023-03-19T08:12:55.789Z,1.64
2023-03-19T08:13:54.780Z,1.65
2023-03-19T08:14:55.844Z,1.67
2023-03-19T08:15:55.913Z,1.81
2023-03-19T08:16:55.097Z,1.86
2023-03-19T08:17:56.254Z,1.88
2023-03-19T08:18:56.103Z,1.90
2023-03-19T08:19:56.158Z,1.86
2023-03-19T08:20:56.251Z,1.84
2023-03-19T08:21:56.298Z,1.87
2023-03-19T08:22:56.389Z,1.93
2023-03-19T08:23:56.488Z,1.91
2023-03-19T08:24:56.479Z,1.89
2023-03-19T08:25:56.545Z,1.87
2023-03-19T08:26:56.621Z,1.84
2023-03-19T08:27:55.682Z,1.82
2023-03-19T08:28:56.739Z,1.84
2023-03-19T08:29:56.844Z,1.87
2023-03-19T08:30:56.905Z,1.84
2023-03-19T08:31:56.932Z,1.90
2023-03-19T08:32:57.103Z,1.88
2023-03-19T08:33:57.067Z,1.92
2023-03-19T08:34:57.149Z,1.94
2023-03-19T08:35:57.192Z,1.94
2023-03-19T08:36:57.225Z,1.90
2023-03-19T08:37:57.310Z,1.91
2023-03-19T08:38:57.504Z,1.93
2023-03-19T08:39:57.442Z,2.05
2023-03-19T08:40:57.501Z,2.02
2023-03-19T08:41:57.541Z,2.05
2023-03-19T08:42:57.611Z,1.98
2023-03-19T08:43:57.692Z,1.96
2023-03-19T08:44:57.745Z,1.89
2023-03-19T08:45:57.870Z,1.83
2023-03-19T08:46:57.927Z,1.78
2023-03-19T08:47:57.940Z,1.76
2023-03-19T08:48:56.985Z,1.72
2023-03-19T08:49:58.052Z,1.70
2023-03-19T08:50:58.095Z,1.73
2023-03-19T08:51:57.187Z,1.76
2023-03-19T08:52:58.296Z,1.75
2023-03-19T08:53:58.293Z,1.75
2023-03-19T08:54:58.340Z,1.69
2023-03-19T08:55:58.442Z,1.68
2023-03-19T08:56:58.469Z,1.61
2023-03-19T08:57:58.537Z,1.61
2023-03-19T08:58:58.607Z,1.61
2023-03-19T08:59:58.666Z,1.62
2023-03-19T09:00:58.719Z,1.58
2023-03-19T09:01:58.860Z,1.57
2023-03-19T09:02:58.854Z,1.54
2023-03-19T09:03:58.976Z,1.51
2023-03-19T09:04:59.068Z,1.52
2023-03-19T09:05:59.020Z,1.51
2023-03-19T09:06:59.077Z,1.52
2023-03-19T09:07:58.126Z,1.54
2023-03-19T09:08:59.193Z,1.56
2023-03-19T09:09:59.300Z,1.52
2023-03-19T09:10:58.389Z,1.53
2023-03-19T09:11:59.387Z,1.53
2023-03-19T09:12:59.424Z,1.54
2023-03-19T09:13:59.467Z,1.52
2023-03-19T09:14:59.523Z,1.51
2023-03-19T09:16:00.375Z,1.52
2023-03-19T09:16:59.633Z,1.52
2023-03-19T09:17:59.713Z,1.50
2023-03-19T09:18:59.760Z,1.48
2023-03-19T09:19:59.805Z,1.49
2023-03-19T09:21:00.742Z,1.49
2023-03-19T09:21:59.861Z,1.49
2023-03-19T09:22:59.859Z,1.48
2023-03-19T09:23:59.855Z,1.49
2023-03-19T09:24:58.882Z,1.46
2023-03-19T09:25:59.938Z,1.49
2023-03-19T09:26:59.994Z,1.49
2023-03-19T09:27:59.070Z,1.53
2023-03-19T09:29:00.135Z,1.55
2023-03-19T09:30:00.172Z,1.50
2023-03-19T09:31:00.228Z,1.52
2023-03-19T09:32:00.235Z,1.49
2023-03-19T09:33:00.341Z,1.53
2023-03-19T09:34:00.380Z,1.51
2023-03-19T09:35:00.382Z,1.54
2023-03-19T09:36:00.489Z,1.54
2023-03-19T09:36:59.468Z,1.52
2023-03-19T09:38:00.514Z,1.53
2023-03-19T09:39:00.584Z,1.52
2023-03-19T09:39:59.613Z,1.58
2023-03-19T09:40:59.640Z,1.59
2023-03-19T09:42:00.680Z,1.57
2023-03-19T09:43:00.735Z,1.56
2023-03-19T09:44:00.814Z,1.56
2023-03-19T09:45:00.805Z,1.57
2023-03-19T09:46:00.860Z,1.56
2023-03-19T09:47:00.925Z,1.59
2023-03-19T09:47:59.925Z,1.59
2023-03-19T09:49:00.975Z,1.58
2023-03-19T09:50:01.003Z,1.56
2023-03-19T09:51:01.046Z,1.57
2023-03-19T09:52:01.090Z,1.56
2023-03-19T09:53:01.120Z,1.56
2023-03-19T09:54:00.171Z,1.58
2023-03-19T09:55:00.213Z,1.55
2023-03-19T09:56:01.239Z,1.54
2023-03-19T09:57:01.297Z,1.53
2023-03-19T09:58:01.350Z,1.58
2023-03-19T09:59:01.356Z,1.54
2023-03-19T10:00:01.430Z,1.55
2023-03-19T10:01:00.439Z,1.54
2023-03-19T10:02:01.687Z,1.57
2023-03-19T10:03:03.772Z,1.57
2023-03-19T10:04:01.586Z,1.59
2023-03-19T10:05:00.529Z,1.59
2023-03-19T10:06:01.519Z,1.55
2023-03-19T10:07:01.494Z,1.57
2023-03-19T10:08:00.480Z,1.55
2023-03-19T10:09:00.483Z,1.52
2023-03-19T10:10:01.495Z,1.56
2023-03-19T10:11:01.485Z,1.52
2023-03-19T10:12:01.474Z,1.50
2023-03-19T10:13:01.475Z,1.53
2023-03-19T10:14:01.465Z,1.51
2023-03-19T10:15:01.433Z,1.55
2023-03-19T10:16:01.556Z,1.53
2023-03-19T10:17:01.441Z,1.53
2023-03-19T10:18:00.418Z,1.53
2023-03-19T10:19:01.403Z,1.56
2023-03-19T10:20:00.401Z,1.55
2023-03-19T10:21:01.376Z,1.57
2023-03-19T10:22:01.389Z,1.53
2023-03-19T10:23:00.391Z,1.52
2023-03-19T10:24:01.372Z,1.52
2023-03-19T10:25:01.398Z,1.52
2023-03-19T10:26:00.378Z,1.52
2023-03-19T10:27:01.346Z,1.50
2023-03-19T10:28:00.370Z,1.54
2023-03-19T10:29:01.355Z,1.54
2023-03-19T10:30:01.331Z,1.51
2023-03-19T10:31:02.693Z,1.52
2023-03-19T10:32:01.390Z,1.55
2023-03-19T10:33:01.436Z,1.54
2023-03-19T10:34:01.373Z,1.56
2023-03-19T10:35:01.411Z,1.54
2023-03-19T10:36:01.474Z,1.52
2023-03-19T10:37:00.480Z,1.53
2023-03-19T10:38:01.547Z,1.49
2023-03-19T10:39:01.547Z,1.50
2023-03-19T10:40:01.605Z,1.47
2023-03-19T10:41:01.621Z,1.49
2023-03-19T10:42:00.741Z,1.48
2023-03-19T10:43:01.702Z,1.49
2023-03-19T10:44:00.737Z,1.49
2023-03-19T10:45:00.753Z,1.51
2023-03-19T10:46:01.863Z,1.50
2023-03-19T10:47:00.824Z,1.52
2023-03-19T10:48:01.892Z,1.50
2023-03-19T10:49:01.888Z,1.52
2023-03-19T10:50:01.912Z,1.53
2023-03-19T10:51:00.969Z,1.52
2023-03-19T10:52:02.005Z,1.50
2023-03-19T10:53:02.037Z,1.51
2023-03-19T10:54:02.070Z,1.48
2023-03-19T10:55:02.085Z,1.49
2023-03-19T10:56:02.140Z,1.48
2023-03-19T10:57:02.144Z,1.48
2023-03-19T10:58:01.180Z,1.46
2023-03-19T10:59:02.229Z,1.49
2023-03-19T11:00:02.370Z,1.49
2023-03-19T11:01:02.479Z,1.49
2023-03-19T11:02:01.325Z,1.50
2023-03-19T11:03:02.347Z,1.50
2023-03-19T11:04:01.483Z,1.49
2023-03-19T11:05:02.421Z,1.51
2023-03-19T11:06:02.468Z,1.49
2023-03-19T11:07:02.519Z,1.46
2023-03-19T11:08:01.525Z,1.48
2023-03-19T11:09:02.557Z,1.45
2023-03-19T11:10:02.596Z,1.45
2023-03-19T11:11:02.697Z,1.47
2023-03-19T11:12:02.669Z,1.42
2023-03-19T11:13:02.676Z,1.41
2023-03-19T11:14:02.703Z,1.45
2023-03-19T11:15:02.736Z,1.42
2023-03-19T11:16:02.776Z,1.39
2023-03-19T11:17:04.597Z,1.40
2023-03-19T11:18:02.791Z,1.40
2023-03-19T11:19:02.836Z,1.46
2023-03-19T11:20:02.776Z,1.46
2023-03-19T11:21:02.789Z,1.43
2023-03-19T11:22:02.768Z,1.39
2023-03-19T11:23:02.819Z,1.37
2023-03-19T11:24:01.732Z,1.40
2023-03-19T11:25:02.738Z,1.42
2023-03-19T11:26:02.767Z,1.38
2023-03-19T11:27:01.760Z,1.37
2023-03-19T11:28:02.717Z,1.35
2023-03-19T11:29:02.781Z,1.38
2023-03-19T11:30:02.707Z,1.35
2023-03-19T11:31:02.702Z,1.32
2023-03-19T11:32:08.685Z,1.31
2023-03-19T11:33:02.814Z,1.31
2023-03-19T11:34:02.660Z,1.32
2023-03-19T11:35:02.701Z,1.33
2023-03-19T11:36:02.724Z,1.32
2023-03-19T11:37:02.655Z,1.32
2023-03-19T11:38:01.649Z,1.31
2023-03-19T11:39:02.639Z,1.30
2023-03-19T11:40:02.624Z,1.32
2023-03-19T11:41:02.628Z,1.32
2023-03-19T11:42:01.624Z,1.31
2023-03-19T11:43:01.613Z,1.30
2023-03-19T11:44:01.619Z,1.29
2023-03-19T11:45:01.609Z,1.29
2023-03-19T11:46:02.747Z,1.28
2023-03-19T11:47:01.593Z,1.27
2023-03-19T11:48:02.581Z,1.28
2023-03-19T11:49:02.593Z,1.30
2023-03-19T11:50:02.571Z,1.29
2023-03-19T11:51:02.612Z,1.29
2023-03-19T11:52:02.626Z,1.28
2023-03-19T11:53:01.634Z,1.25
2023-03-19T11:54:02.667Z,1.26
2023-03-19T11:55:02.689Z,1.27
2023-03-19T11:56:02.719Z,1.25
2023-03-19T11:57:02.755Z,1.28
2023-03-19T11:58:02.775Z,1.29
2023-03-19T11:59:02.815Z,1.28
2023-03-19T12:00:02.837Z,1.29
2023-03-19T12:01:01.892Z,1.29
2023-03-19T12:02:02.977Z,1.27
2023-03-19T12:03:01.948Z,1.28
2023-03-19T12:04:02.975Z,1.26
2023-03-19T12:05:03.001Z,1.28
2023-03-19T12:06:03.028Z,1.26
2023-03-19T12:07:03.097Z,1.30
2023-03-19T12:08:03.102Z,1.30
2023-03-19T12:09:02.140Z,1.25
2023-03-19T12:10:02.177Z,1.25
2023-03-19T12:11:03.188Z,1.29
2023-03-19T12:12:03.228Z,1.30
2023-03-19T12:13:02.241Z,1.28
2023-03-19T12:14:03.271Z,1.30
2023-03-19T12:15:02.321Z,1.27
2023-03-19T12:16:03.434Z,1.27
2023-03-19T12:17:03.381Z,1.28
2023-03-19T12:18:03.394Z,1.30
2023-03-19T12:19:03.440Z,1.31
2023-03-19T12:20:03.477Z,1.29
2023-03-19T12:21:03.505Z,1.29
2023-03-19T12:22:03.519Z,1.28
2023-03-19T12:23:03.561Z,1.30
2023-03-19T12:24:02.572Z,1.28
2023-03-19T12:25:02.594Z,1.27
2023-03-19T12:26:03.624Z,1.29
2023-03-19T12:27:02.686Z,1.26
2023-03-19T12:28:03.699Z,1.26
2023-03-19T12:29:04.635Z,1.25
2023-03-19T12:30:03.757Z,1.26
2023-03-19T12:31:03.827Z,1.25
2023-03-19T12:32:03.813Z,1.22
2023-03-19T12:33:02.902Z,1.24
2023-03-19T12:34:03.869Z,1.24
2023-03-19T12:35:03.883Z,1.23
2023-03-19T12:36:03.944Z,1.22
2023-03-19T12:37:04.338Z,1.24
2023-03-19T12:38:03.962Z,1.24
2023-03-19T12:39:04.012Z,1.24
2023-03-19T12:40:04.021Z,1.25
2023-03-19T12:41:04.027Z,1.24
2023-03-19T12:42:04.052Z,1.23
2023-03-19T12:43:04.086Z,1.21
2023-03-19T12:44:04.111Z,1.19
2023-03-19T12:45:04.149Z,1.23
2023-03-19T12:46:04.259Z,1.21
2023-03-19T12:47:04.207Z,1.20
2023-03-19T12:48:04.201Z,1.20
2023-03-19T12:49:04.219Z,1.18
2023-03-19T12:50:04.249Z,1.22
2023-03-19T12:51:03.274Z,1.20
2023-03-19T12:52:04.291Z,1.20
2023-03-19T12:53:04.312Z,1.20
2023-03-19T12:54:04.329Z,1.20
2023-03-19T12:55:04.385Z,1.19
2023-03-19T12:56:04.362Z,1.19
2023-03-19T12:57:04.389Z,1.18
2023-03-19T12:58:04.398Z,1.17
2023-03-19T12:59:04.425Z,1.19
2023-03-19T13:00:04.422Z,1.18
2023-03-19T13:01:04.452Z,1.19
2023-03-19T13:02:04.687Z,1.17
2023-03-19T13:03:04.483Z,1.16
2023-03-19T13:04:04.502Z,1.14
2023-03-19T13:05:04.658Z,1.16
2023-03-19T13:06:04.530Z,1.17
2023-03-19T13:07:04.557Z,1.16
2023-03-19T13:08:04.624Z,1.16
2023-03-19T13:09:03.623Z,1.15
2023-03-19T13:10:04.690Z,1.17
2023-03-19T13:11:04.654Z,1.15
2023-03-19T13:12:04.662Z,1.15
2023-03-19T13:13:04.738Z,1.14
2023-03-19T13:14:04.703Z,1.16
2023-03-19T13:15:04.706Z,1.15
2023-03-19T13:16:04.795Z,1.15
2023-03-19T13:17:04.782Z,1.17
2023-03-19T13:18:04.778Z,1.17
2023-03-19T13:19:04.779Z,1.16
2023-03-19T13:20:04.842Z,1.14